sensor_id;sensor_type;location;lat;lon;timestamp;pressure;altitude;pressure_sealevel;temperature;humidity
57859;BME280;49153;45.568;11.894;2022-12-10T00:02:20;99912.06;;;6.46;100.00
57859;BME280;49153;45.568;11.894;2022-12-10T00:04:45;99910.59;;;6.42;100.00
57859;BME280;49153;45.568;11.894;2022-12-10T00:07:10;99898.66;;;6.38;100.00
57859;BME280;49153;45.568;11.894;2022-12-10T00:09:36;99881.25;;;6.37;100.00
57859;BME280;49153;45.568;11.894;2022-12-10T00:12:01;99887.63;;;6.46;100.00
57859;BME280;49153;45.568;11.894;2022-12-10T00:14:27;99858.84;;;6.33;100.00
57859;BME280;49153;45.568;11.894;2022-12-10T00:16:52;99863.00;;;6.35;100.00
57859;BME280;49153;45.568;11.894;2022-12-10T00:19:18;99876.31;;;6.45;100.00
57859;BME280;49153;45.568;11.894;2022-12-10T00:21:44;99876.22;;;6.47;100.00
57859;BME280;49153;45.568;11.894;2022-12-10T00:24:11;99882.41;;;6.46;100.00
57859;BME280;49153;45.568;11.894;2022-12-10T00:26:38;99886.38;;;6.51;100.00
57859;BME280;49153;45.568;11.894;2022-12-10T00:29:06;99885.75;;;6.48;100.00
57859;BME280;49153;45.568;11.894;2022-12-10T00:31:34;99893.22;;;6.54;100.00
57859;BME280;49153;45.568;11.894;2022-12-10T00:34:04;99906.00;;;6.58;100.00
57859;BME280;49153;45.568;11.894;2022-12-10T00:36:38;99886.91;;;6.56;100.00
57859;BME280;49153;45.568;11.894;2022-12-10T00:39:04;99872.25;;;6.54;100.00
57859;BME280;49153;45.568;11.894;2022-12-10T00:41:30;99863.66;;;6.52;100.00
57859;BME280;49153;45.568;11.894;2022-12-10T00:43:55;99873.94;;;6.55;100.00
57859;BME280;49153;45.568;11.894;2022-12-10T00:46:21;99872.25;;;6.54;100.00
57859;BME280;49153;45.568;11.894;2022-12-10T00:48:46;99874.78;;;6.55;100.00
57859;BME280;49153;45.568;11.894;2022-12-10T00:51:18;99871.09;;;6.58;100.00
57859;BME280;49153;45.568;11.894;2022-12-10T00:53:45;99854.00;;;6.52;100.00
57859;BME280;49153;45.568;11.894;2022-12-10T00:56:12;99878.53;;;6.64;100.00
57859;BME280;49153;45.568;11.894;2022-12-10T00:58:38;99876.84;;;6.63;100.00
57859;BME280;49153;45.568;11.894;2022-12-10T01:01:17;99885.47;;;6.65;100.00
57859;BME280;49153;45.568;11.894;2022-12-10T01:03:43;99888.16;;;6.63;100.00
57859;BME280;49153;45.568;11.894;2022-12-10T01:08:42;99847.22;;;6.50;100.00
57859;BME280;49153;45.568;11.894;2022-12-10T01:11:09;99882.09;;;6.63;100.00
57859;BME280;49153;45.568;11.894;2022-12-10T01:13:34;99871.09;;;6.58;100.00
57859;BME280;49153;45.568;11.894;2022-12-10T01:16:05;99868.47;;;6.58;100.00
57859;BME280;49153;45.568;11.894;2022-12-10T01:18:31;99850.53;;;6.52;100.00
57859;BME280;49153;45.568;11.894;2022-12-10T01:21:07;99869.84;;;6.63;100.00
57859;BME280;49153;45.568;11.894;2022-12-10T01:23:35;99851.72;;;6.60;100.00
57859;BME280;49153;45.568;11.894;2022-12-10T01:26:03;99861.13;;;6.63;100.00
57859;BME280;49153;45.568;11.894;2022-12-10T01:28:31;99855.19;;;6.61;100.00
57859;BME280;49153;45.568;11.894;2022-12-10T01:31:00;99855.38;;;6.58;100.00
57859;BME280;49153;45.568;11.894;2022-12-10T01:33:26;99858.00;;;6.58;100.00
57859;BME280;49153;45.568;11.894;2022-12-10T01:35:52;99862.28;;;6.59;100.00
57859;BME280;49153;45.568;11.894;2022-12-10T01:38:17;99861.53;;;6.57;100.00
57859;BME280;49153;45.568;11.894;2022-12-10T01:40:43;99851.06;;;6.57;100.00
57859;BME280;49153;45.568;11.894;2022-12-10T01:43:13;99864.69;;;6.62;100.00
57859;BME280;49153;45.568;11.894;2022-12-10T01:45:39;99861.13;;;6.63;100.00
57859;BME280;49153;45.568;11.894;2022-12-10T01:48:04;99856.72;;;6.63;100.00
57859;BME280;49153;45.568;11.894;2022-12-10T01:50:30;99867.31;;;6.62;100.00
57859;BME280;49153;45.568;11.894;2022-12-10T01:52:55;99877.69;;;6.63;100.00
57859;BME280;49153;45.568;11.894;2022-12-10T01:55:42;99889.84;;;6.52;100.00
57859;BME280;49153;45.568;11.894;2022-12-10T01:58:08;99881.78;;;6.42;100.00
57859;BME280;49153;45.568;11.894;2022-12-10T02:00:46;99863.22;;;6.45;100.00
57859;BME280;49153;45.568;11.894;2022-12-10T02:03:47;99863.88;;;6.49;100.00
57859;BME280;49153;45.568;11.894;2022-12-10T02:09:13;99856.53;;;6.54;100.00
57859;BME280;49153;45.568;11.894;2022-12-10T02:14:18;99837.66;;;6.49;100.00
57859;BME280;49153;45.568;11.894;2022-12-10T02:16:56;99851.06;;;6.57;100.00
57859;BME280;49153;45.568;11.894;2022-12-10T02:19:58;99869.00;;;6.63;100.00
57859;BME280;49153;45.568;11.894;2022-12-10T02:22:28;99860.28;;;6.62;100.00
57859;BME280;49153;45.568;11.894;2022-12-10T02:24:57;99864.59;;;6.63;100.00
57859;BME280;49153;45.568;11.894;2022-12-10T02:27:33;99854.94;;;6.64;100.00
57859;BME280;49153;45.568;11.894;2022-12-10T02:30:02;99857.06;;;6.71;100.00
57859;BME280;49153;45.568;11.894;2022-12-10T02:32:37;99850.13;;;6.70;100.00
57859;BME280;49153;45.568;11.894;2022-12-10T02:35:07;99851.50;;;6.76;100.00
57859;BME280;49153;45.568;11.894;2022-12-10T02:37:39;99845.50;;;6.74;100.00
57859;BME280;49153;45.568;11.894;2022-12-10T02:40:07;99852.00;;;6.81;100.00
57859;BME280;49153;45.568;11.894;2022-12-10T02:42:38;99850.50;;;6.77;100.00
57859;BME280;49153;45.568;11.894;2022-12-10T02:45:07;99826.03;;;6.65;100.00
57859;BME280;49153;45.568;11.894;2022-12-10T02:47:34;99830.31;;;6.66;100.00
57859;BME280;49153;45.568;11.894;2022-12-10T02:50:00;99821.91;;;6.61;100.00
57859;BME280;49153;45.568;11.894;2022-12-10T02:52:26;99832.53;;;6.60;100.00
57859;BME280;49153;45.568;11.894;2022-12-10T02:54:52;99828.41;;;6.56;100.00
57859;BME280;49153;45.568;11.894;2022-12-10T02:57:38;99835.25;;;6.58;100.00
57859;BME280;49153;45.568;11.894;2022-12-10T03:00:13;99832.09;;;6.53;100.00
57859;BME280;49153;45.568;11.894;2022-12-10T03:08:21;99838.19;;;6.54;100.00
57859;BME280;49153;45.568;11.894;2022-12-10T03:11:08;99835.25;;;6.58;100.00
57859;BME280;49153;45.568;11.894;2022-12-10T03:13:43;99826.78;;;6.55;100.00
57859;BME280;49153;45.568;11.894;2022-12-10T03:16:13;99828.66;;;6.53;100.00
57859;BME280;49153;45.568;11.894;2022-12-10T03:18:40;99824.47;;;6.50;100.00
57859;BME280;49153;45.568;11.894;2022-12-10T03:21:06;99821.53;;;6.55;100.00
57859;BME280;49153;45.568;11.894;2022-12-10T03:23:36;99812.09;;;6.52;100.00
57859;BME280;49153;45.568;11.894;2022-12-10T03:26:03;99816.28;;;6.55;100.00
57859;BME280;49153;45.568;11.894;2022-12-10T03:28:32;99815.44;;;6.54;100.00
57859;BME280;49153;45.568;11.894;2022-12-10T03:31:00;99801.19;;;6.46;100.00
57859;BME280;49153;45.568;11.894;2022-12-10T03:33:26;99816.72;;;6.49;100.00
57859;BME280;49153;45.568;11.894;2022-12-10T03:35:52;99815.78;;;6.50;100.00
57859;BME280;49153;45.568;11.894;2022-12-10T03:38:18;99815.34;;;6.43;100.00
57859;BME280;49153;45.568;11.894;2022-12-10T03:40:44;99823.22;;;6.43;100.00
57859;BME280;49153;45.568;11.894;2022-12-10T03:43:12;99833.59;;;6.45;100.00
57859;BME280;49153;45.568;11.894;2022-12-10T03:45:39;99836.72;;;6.50;100.00
57859;BME280;49153;45.568;11.894;2022-12-10T03:48:05;99835.25;;;6.46;100.00
57859;BME280;49153;45.568;11.894;2022-12-10T03:50:30;99823.41;;;6.40;100.00
57859;BME280;49153;45.568;11.894;2022-12-10T03:52:56;99828.22;;;6.46;100.00
57859;BME280;49153;45.568;11.894;2022-12-10T03:55:21;99817.13;;;6.43;100.00
57859;BME280;49153;45.568;11.894;2022-12-10T03:57:47;99827.19;;;6.49;100.00
57859;BME280;49153;45.568;11.894;2022-12-10T04:00:13;99831.03;;;6.56;100.00
57859;BME280;49153;45.568;11.894;2022-12-10T04:02:39;99815.03;;;6.48;100.00
57859;BME280;49153;45.568;11.894;2022-12-10T04:05:05;99816.28;;;6.55;100.00
57859;BME280;49153;45.568;11.894;2022-12-10T04:07:31;99807.06;;;6.49;100.00
57859;BME280;49153;45.568;11.894;2022-12-10T04:09:57;99818.50;;;6.48;100.00
57859;BME280;49153;45.568;11.894;2022-12-10T04:12:22;99815.78;;;6.50;100.00
57859;BME280;49153;45.568;11.894;2022-12-10T04:14:48;99805.28;;;6.50;100.00
57859;BME280;49153;45.568;11.894;2022-12-10T04:17:32;99805.16;;;6.51;100.00
57859;BME280;49153;45.568;11.894;2022-12-10T04:19:58;99807.69;;;6.53;100.00
57859;BME280;49153;45.568;11.894;2022-12-10T04:22:24;99803.50;;;6.50;100.00
57859;BME280;49153;45.568;11.894;2022-12-10T04:25:11;99801.84;;;6.49;100.00
57859;BME280;49153;45.568;11.894;2022-12-10T04:27:55;99818.16;;;6.53;100.00
57859;BME280;49153;45.568;11.894;2022-12-10T04:30:20;99809.38;;;6.54;100.00
57859;BME280;49153;45.568;11.894;2022-12-10T04:32:46;99805.06;;;6.53;100.00
57859;BME280;49153;45.568;11.894;2022-12-10T04:35:11;99790.50;;;6.49;100.00
57859;BME280;49153;45.568;11.894;2022-12-10T04:37:37;99803.91;;;6.57;100.00
57859;BME280;49153;45.568;11.894;2022-12-10T04:40:03;99792.19;;;6.50;100.00
57859;BME280;49153;45.568;11.894;2022-12-10T04:42:29;99807.25;;;6.59;100.00
57859;BME280;49153;45.568;11.894;2022-12-10T04:44:54;99784.09;;;6.53;100.00
57859;BME280;49153;45.568;11.894;2022-12-10T04:47:20;99783.78;;;6.57;100.00
57859;BME280;49153;45.568;11.894;2022-12-10T04:49:45;99776.03;;;6.56;100.00
57859;BME280;49153;45.568;11.894;2022-12-10T04:52:13;99781.06;;;6.59;100.00
57859;BME280;49153;45.568;11.894;2022-12-10T04:54:39;99767.97;;;6.59;100.00
57859;BME280;49153;45.568;11.894;2022-12-10T04:57:06;99760.31;;;6.56;100.00
57859;BME280;49153;45.568;11.894;2022-12-10T04:59:31;99764.59;;;6.57;100.00
57859;BME280;49153;45.568;11.894;2022-12-10T05:01:57;99764.59;;;6.57;100.00
57859;BME280;49153;45.568;11.894;2022-12-10T05:04:22;99763.66;;;6.58;100.00
57859;BME280;49153;45.568;11.894;2022-12-10T05:06:48;99751.94;;;6.51;100.00
57859;BME280;49153;45.568;11.894;2022-12-10T05:09:14;99766.38;;;6.56;100.00
57859;BME280;49153;45.568;11.894;2022-12-10T05:11:40;99759.19;;;6.47;100.00
57859;BME280;49153;45.568;11.894;2022-12-10T05:14:08;99775.09;;;6.57;100.00
57859;BME280;49153;45.568;11.894;2022-12-10T05:16:34;99762.53;;;6.49;100.00
57859;BME280;49153;45.568;11.894;2022-12-10T05:18:59;99769.97;;;6.55;100.00
57859;BME280;49153;45.568;11.894;2022-12-10T05:21:27;99764.28;;;6.61;100.00
57859;BME280;49153;45.568;11.894;2022-12-10T05:24:12;99754.03;;;6.58;100.00
57859;BME280;49153;45.568;11.894;2022-12-10T05:26:37;99743.66;;;6.57;100.00
57859;BME280;49153;45.568;11.894;2022-12-10T05:29:03;99759.53;;;6.66;100.00
57859;BME280;49153;45.568;11.894;2022-12-10T05:31:29;99766.91;;;6.61;100.00
57859;BME280;49153;45.568;11.894;2022-12-10T05:33:56;99776.44;;;6.62;100.00
57859;BME280;49153;45.568;11.894;2022-12-10T05:36:25;99767.88;;;6.60;100.00
57859;BME280;49153;45.568;11.894;2022-12-10T05:38:52;99761.97;;;6.57;100.00
57859;BME280;49153;45.568;11.894;2022-12-10T05:41:20;99761.78;;;6.60;100.00
57859;BME280;49153;45.568;11.894;2022-12-10T05:43:46;99759.88;;;6.62;100.00
57859;BME280;49153;45.568;11.894;2022-12-10T05:46:15;99758.00;;;6.64;100.00
57859;BME280;49153;45.568;11.894;2022-12-10T05:48:40;99739.34;;;6.56;100.00
57859;BME280;49153;45.568;11.894;2022-12-10T05:51:08;99747.00;;;6.59;100.00
57859;BME280;49153;45.568;11.894;2022-12-10T05:53:34;99743.97;;;6.65;100.00
57859;BME280;49153;45.568;11.894;2022-12-10T05:56:01;99742.28;;;6.64;100.00
57859;BME280;49153;45.568;11.894;2022-12-10T05:58:28;99734.81;;;6.70;100.00
57859;BME280;49153;45.568;11.894;2022-12-10T06:00:55;99741.41;;;6.76;100.00
57859;BME280;49153;45.568;11.894;2022-12-10T06:03:20;99737.72;;;6.78;100.00
57859;BME280;49153;45.568;11.894;2022-12-10T06:05:45;99735.84;;;6.81;100.00
57859;BME280;49153;45.568;11.894;2022-12-10T06:08:11;99734.06;;;6.81;100.00
57859;BME280;49153;45.568;11.894;2022-12-10T06:10:36;99738.88;;;6.87;100.00
57859;BME280;49153;45.568;11.894;2022-12-10T06:13:03;99727.47;;;6.75;100.00
57859;BME280;49153;45.568;11.894;2022-12-10T06:15:30;99740.94;;;6.82;100.00
57859;BME280;49153;45.568;11.894;2022-12-10T06:17:56;99732.38;;;6.80;100.00
57859;BME280;49153;45.568;11.894;2022-12-10T06:20:23;99720.22;;;6.79;100.00
57859;BME280;49153;45.568;11.894;2022-12-10T06:22:48;99722.50;;;6.84;100.00
57859;BME280;49153;45.568;11.894;2022-12-10T06:25:14;99717.59;;;6.79;100.00
57859;BME280;49153;45.568;11.894;2022-12-10T06:27:39;99724.78;;;6.88;100.00
57859;BME280;49153;45.568;11.894;2022-12-10T06:30:05;99739.88;;;6.97;100.00
57859;BME280;49153;45.568;11.894;2022-12-10T06:32:31;99722.91;;;6.90;100.00
57859;BME280;49153;45.568;11.894;2022-12-10T06:34:56;99724.97;;;6.98;100.00
57859;BME280;49153;45.568;11.894;2022-12-10T06:37:22;99729.59;;;6.94;100.00
57859;BME280;49153;45.568;11.894;2022-12-10T06:39:50;99728.41;;;6.98;100.00
57859;BME280;49153;45.568;11.894;2022-12-10T06:42:15;99710.03;;;6.87;100.00
57859;BME280;49153;45.568;11.894;2022-12-10T06:44:41;99720.53;;;6.98;100.00
57859;BME280;49153;45.568;11.894;2022-12-10T06:47:06;99720.88;;;6.94;100.00
57859;BME280;49153;45.568;11.894;2022-12-10T06:49:32;99729.25;;;6.99;100.00
57859;BME280;49153;45.568;11.894;2022-12-10T06:51:57;99738.47;;;7.04;100.00
57859;BME280;49153;45.568;11.894;2022-12-10T06:54:22;99730.84;;;7.01;100.00
57859;BME280;49153;45.568;11.894;2022-12-10T06:56:48;99727.63;;;7.09;100.00
57859;BME280;49153;45.568;11.894;2022-12-10T06:59:13;99739.34;;;7.16;100.00
57859;BME280;49153;45.568;11.894;2022-12-10T07:01:39;99735.91;;;7.15;100.00
57859;BME280;49153;45.568;11.894;2022-12-10T07:04:05;99734.97;;;7.16;100.00
57859;BME280;49153;45.568;11.894;2022-12-10T07:06:30;99730.91;;;7.12;100.00
57859;BME280;49153;45.568;11.894;2022-12-10T07:08:56;99742.38;;;7.22;100.00
57859;BME280;49153;45.568;11.894;2022-12-10T07:11:23;99735.91;;;7.15;100.00
57859;BME280;49153;45.568;11.894;2022-12-10T07:13:49;99747.72;;;7.21;100.00
57859;BME280;49153;45.568;11.894;2022-12-10T07:18:42;99744.25;;;7.20;100.00
57859;BME280;49153;45.568;11.894;2022-12-10T07:23:39;99753.81;;;7.21;100.00
57859;BME280;49153;45.568;11.894;2022-12-10T07:26:05;99745.69;;;7.13;100.00
57859;BME280;49153;45.568;11.894;2022-12-10T07:28:30;99761.91;;;7.18;100.00
57859;BME280;49153;45.568;11.894;2022-12-10T07:31:03;99763.91;;;7.15;100.00
57859;BME280;49153;45.568;11.894;2022-12-10T07:33:28;99750.28;;;7.10;100.00
57859;BME280;49153;45.568;11.894;2022-12-10T07:35:54;99771.66;;;7.16;100.00
57859;BME280;49153;45.568;11.894;2022-12-10T07:38:20;99784.34;;;7.22;100.00
57859;BME280;49153;45.568;11.894;2022-12-10T07:40:45;99773.34;;;7.17;100.00
57859;BME280;49153;45.568;11.894;2022-12-10T07:43:10;99767.38;;;7.15;100.00
57859;BME280;49153;45.568;11.894;2022-12-10T07:45:36;99773.44;;;7.16;100.00
57859;BME280;49153;45.568;11.894;2022-12-10T07:48:02;99790.53;;;7.21;100.00
57859;BME280;49153;45.568;11.894;2022-12-10T07:50:27;99780.03;;;7.21;100.00
57859;BME280;49153;45.568;11.894;2022-12-10T07:52:52;99767.25;;;7.17;100.00
57859;BME280;49153;45.568;11.894;2022-12-10T07:55:18;99773.13;;;7.20;100.00
57859;BME280;49153;45.568;11.894;2022-12-10T07:57:43;99776.38;;;7.24;100.00
57859;BME280;49153;45.568;11.894;2022-12-10T08:00:09;99775.91;;;7.30;100.00
57859;BME280;49153;45.568;11.894;2022-12-10T08:02:35;99791.94;;;7.38;100.00
57859;BME280;49153;45.568;11.894;2022-12-10T08:05:00;99755.25;;;7.26;100.00
57859;BME280;49153;45.568;11.894;2022-12-10T08:07:26;99763.63;;;7.31;100.00
57859;BME280;49153;45.568;11.894;2022-12-10T08:09:51;99770.56;;;7.32;100.00
57859;BME280;49153;45.568;11.894;2022-12-10T08:12:16;99788.13;;;7.42;100.00
57859;BME280;49153;45.568;11.894;2022-12-10T08:14:42;99793.47;;;7.41;100.00
57859;BME280;49153;45.568;11.894;2022-12-10T08:17:07;99797.88;;;7.40;100.00
57859;BME280;49153;45.568;11.894;2022-12-10T08:19:33;99793.72;;;7.38;100.00
57859;BME280;49153;45.568;11.894;2022-12-10T08:21:58;99789.22;;;7.40;100.00
57859;BME280;49153;45.568;11.894;2022-12-10T08:24:24;99785.00;;;7.37;100.00
57859;BME280;49153;45.568;11.894;2022-12-10T08:26:49;99793.81;;;7.36;100.00
57859;BME280;49153;45.568;11.894;2022-12-10T08:29:15;99801.34;;;7.41;100.00
57859;BME280;49153;45.568;11.894;2022-12-10T08:31:40;99801.34;;;7.41;100.00
57859;BME280;49153;45.568;11.894;2022-12-10T08:34:12;99797.38;;;7.35;100.00
57859;BME280;49153;45.568;11.894;2022-12-10T08:36:38;99788.56;;;7.36;100.00
57859;BME280;49153;45.568;11.894;2022-12-10T08:39:03;99785.25;;;7.34;100.00
57859;BME280;49153;45.568;11.894;2022-12-10T08:41:28;99782.94;;;7.30;100.00
57859;BME280;49153;45.568;11.894;2022-12-10T08:43:54;99774.00;;;7.32;100.00
57859;BME280;49153;45.568;11.894;2022-12-10T08:46:20;99774.13;;;7.31;100.00
57859;BME280;49153;45.568;11.894;2022-12-10T08:48:46;99767.31;;;7.28;100.00
57859;BME280;49153;45.568;11.894;2022-12-10T08:51:14;99765.41;;;7.30;100.00
57859;BME280;49153;45.568;11.894;2022-12-10T08:53:40;99763.88;;;7.28;100.00
57859;BME280;49153;45.568;11.894;2022-12-10T08:56:05;99764.47;;;7.31;100.00
57859;BME280;49153;45.568;11.894;2022-12-10T08:58:31;99772.00;;;7.36;100.00
57859;BME280;49153;45.568;11.894;2022-12-10T09:00:57;99762.34;;;7.36;100.00
57859;BME280;49153;45.568;11.894;2022-12-10T09:03:22;99759.38;;;7.41;100.00
57859;BME280;49153;45.568;11.894;2022-12-10T09:05:48;99765.34;;;7.43;100.00
57859;BME280;49153;45.568;11.894;2022-12-10T09:08:14;99766.09;;;7.45;100.00
57859;BME280;49153;45.568;11.894;2022-12-10T09:10:40;99761.44;;;7.48;100.00
57859;BME280;49153;45.568;11.894;2022-12-10T09:13:06;99755.13;;;7.51;100.00
57859;BME280;49153;45.568;11.894;2022-12-10T09:15:31;99752.38;;;7.52;100.00
57859;BME280;49153;45.568;11.894;2022-12-10T09:17:57;99759.31;;;7.53;100.00
57859;BME280;49153;45.568;11.894;2022-12-10T09:20:22;99745.16;;;7.56;100.00
57859;BME280;49153;45.568;11.894;2022-12-10T09:22:48;99750.75;;;7.62;100.00
57859;BME280;49153;45.568;11.894;2022-12-10T09:25:13;99740.03;;;7.66;100.00
57859;BME280;49153;45.568;11.894;2022-12-10T09:27:43;99748.28;;;7.72;100.00
57859;BME280;49153;45.568;11.894;2022-12-10T09:30:10;99749.75;;;7.76;100.00
57859;BME280;49153;45.568;11.894;2022-12-10T09:32:36;99747.81;;;7.78;100.00
57859;BME280;49153;45.568;11.894;2022-12-10T09:35:01;99737.31;;;7.78;100.00
57859;BME280;49153;45.568;11.894;2022-12-10T09:37:27;99741.25;;;7.84;100.00
57859;BME280;49153;45.568;11.894;2022-12-10T09:39:52;99731.59;;;7.84;100.00
57859;BME280;49153;45.568;11.894;2022-12-10T09:47:12;99716.97;;;7.93;100.00
57859;BME280;49153;45.568;11.894;2022-12-10T09:52:39;99713.00;;;7.98;100.00
57859;BME280;49153;45.568;11.894;2022-12-10T09:55:23;99697.03;;;8.01;100.00
57859;BME280;49153;45.568;11.894;2022-12-10T09:57:51;99700.72;;;8.10;100.00
57859;BME280;49153;45.568;11.894;2022-12-10T10:00:39;99694.16;;;8.16;100.00
57859;BME280;49153;45.568;11.894;2022-12-10T10:03:12;99690.31;;;8.20;100.00
57859;BME280;49153;45.568;11.894;2022-12-10T10:05:41;99688.78;;;8.28;100.00
57859;BME280;49153;45.568;11.894;2022-12-10T10:08:46;99683.19;;;8.33;100.00
57859;BME280;49153;45.568;11.894;2022-12-10T10:11:04;99673.16;;;8.38;100.00
57859;BME280;49153;45.568;11.894;2022-12-10T10:13:40;99665.84;;;8.41;100.00
57859;BME280;49153;45.568;11.894;2022-12-10T10:18:48;99657.00;;;8.54;100.00
57859;BME280;49153;45.568;11.894;2022-12-10T10:21:32;99666.78;;;8.63;100.00
57859;BME280;49153;45.568;11.894;2022-12-10T10:23:59;99662.13;;;8.66;100.00
57859;BME280;49153;45.568;11.894;2022-12-10T10:26:27;99662.97;;;8.67;100.00
57859;BME280;49153;45.568;11.894;2022-12-10T10:28:58;99658.16;;;8.72;100.00
57859;BME280;49153;45.568;11.894;2022-12-10T10:31:27;99642.25;;;8.73;100.00
57859;BME280;49153;45.568;11.894;2022-12-10T10:33:55;99635.09;;;8.75;100.00
57859;BME280;49153;45.568;11.894;2022-12-10T10:36:32;99629.81;;;8.75;100.00
57859;BME280;49153;45.568;11.894;2022-12-10T10:41:42;99638.38;;;8.88;100.00
57859;BME280;49153;45.568;11.894;2022-12-10T10:44:16;99621.91;;;8.86;100.00
57859;BME280;49153;45.568;11.894;2022-12-10T10:46:42;99614.47;;;8.92;100.00
57859;BME280;49153;45.568;11.894;2022-12-10T10:49:32;99623.16;;;9.03;100.00
57859;BME280;49153;45.568;11.894;2022-12-10T10:52:19;99614.88;;;9.08;100.00
57859;BME280;49153;45.568;11.894;2022-12-10T10:54:45;99616.09;;;9.04;100.00
57859;BME280;49153;45.568;11.894;2022-12-10T10:57:21;99611.28;;;9.09;100.00
57859;BME280;49153;45.568;11.894;2022-12-10T10:59:49;99606.72;;;9.11;100.00
57859;BME280;49153;45.568;11.894;2022-12-10T11:02:36;99604.22;;;9.09;100.00
57859;BME280;49153;45.568;11.894;2022-12-10T11:05:22;99599.28;;;9.16;100.00
57859;BME280;49153;45.568;11.894;2022-12-10T11:07:57;99596.53;;;9.17;100.00
57859;BME280;49153;45.568;11.894;2022-12-10T11:10:24;99596.41;;;9.19;100.00
57859;BME280;49153;45.568;11.894;2022-12-10T11:16:17;99582.47;;;9.28;100.00
57859;BME280;49153;45.568;11.894;2022-12-10T11:18:56;99582.63;;;9.36;100.00
57859;BME280;49153;45.568;11.894;2022-12-10T11:21:31;99573.28;;;9.43;100.00
57859;BME280;49153;45.568;11.894;2022-12-10T11:24:00;99573.72;;;9.48;100.00
57859;BME280;49153;45.568;11.894;2022-12-10T11:29:31;99562.94;;;9.51;100.00
57859;BME280;49153;45.568;11.894;2022-12-10T11:35:20;99554.50;;;9.57;100.00
57859;BME280;49153;45.568;11.894;2022-12-10T11:49:02;99537.13;;;9.75;100.00
57859;BME280;49153;45.568;11.894;2022-12-10T11:51:52;99538.06;;;9.74;100.00
57859;BME280;49153;45.568;11.894;2022-12-10T11:57:30;99526.88;;;9.82;100.00
57859;BME280;49153;45.568;11.894;2022-12-10T12:00:15;99513.03;;;9.90;100.00
57859;BME280;49153;45.568;11.894;2022-12-10T12:03:06;99512.78;;;10.02;100.00
57859;BME280;49153;45.568;11.894;2022-12-10T12:05:52;99504.78;;;10.13;100.00
57859;BME280;49153;45.568;11.894;2022-12-10T12:11:50;99493.59;;;10.31;100.00
57859;BME280;49153;45.568;11.894;2022-12-10T12:19:25;99482.75;;;10.53;100.00
57859;BME280;49153;45.568;11.894;2022-12-10T12:21:55;99470.97;;;10.57;100.00
57859;BME280;49153;45.568;11.894;2022-12-10T12:24:50;99479.31;;;10.62;100.00
57859;BME280;49153;45.568;11.894;2022-12-10T12:27:41;99478.31;;;10.63;100.00
57859;BME280;49153;45.568;11.894;2022-12-10T12:30:18;99470.41;;;10.63;100.00
57859;BME280;49153;45.568;11.894;2022-12-10T12:33:04;99472.91;;;10.65;100.00
57859;BME280;49153;45.568;11.894;2022-12-10T12:36:10;99471.53;;;10.61;100.00
57859;BME280;49153;45.568;11.894;2022-12-10T12:38:38;99470.97;;;10.57;100.00
57859;BME280;49153;45.568;11.894;2022-12-10T12:43:46;99462.66;;;10.62;100.00
57859;BME280;49153;45.568;11.894;2022-12-10T12:46:18;99471.50;;;10.70;100.00
57859;BME280;49153;45.568;11.894;2022-12-10T12:48:56;99467.91;;;10.71;100.00
57859;BME280;49153;45.568;11.894;2022-12-10T12:51:28;99465.41;;;10.70;100.00
57859;BME280;49153;45.568;11.894;2022-12-10T12:53:54;99458.59;;;10.77;100.00
57859;BME280;49153;45.568;11.894;2022-12-10T12:56:42;99461.22;;;10.77;100.00
57859;BME280;49153;45.568;11.894;2022-12-10T13:02:02;99457.19;;;10.82;100.00
57859;BME280;49153;45.568;11.894;2022-12-10T13:04:32;99454.81;;;10.79;100.00
57859;BME280;49153;45.568;11.894;2022-12-10T13:09:47;99457.34;;;10.71;100.00
57859;BME280;49153;45.568;11.894;2022-12-10T13:12:30;99434.47;;;10.62;100.00
57859;BME280;49153;45.568;11.894;2022-12-10T13:20:34;99435.44;;;10.61;100.00
57859;BME280;49153;45.568;11.894;2022-12-10T13:23:08;99448.06;;;10.67;100.00
57859;BME280;49153;45.568;11.894;2022-12-10T13:36:35;99439.31;;;10.47;100.00
57859;BME280;49153;45.568;11.894;2022-12-10T13:41:42;99434.78;;;10.40;100.00
57859;BME280;49153;45.568;11.894;2022-12-10T13:47:28;99444.34;;;10.41;100.00
57859;BME280;49153;45.568;11.894;2022-12-10T13:50:03;99441.00;;;10.39;100.00
57859;BME280;49153;45.568;11.894;2022-12-10T13:52:49;99438.09;;;10.32;100.00
57859;BME280;49153;45.568;11.894;2022-12-10T14:03:26;99451.13;;;10.34;100.00
57859;BME280;49153;45.568;11.894;2022-12-10T14:08:27;99455.44;;;10.35;100.00
57859;BME280;49153;45.568;11.894;2022-12-10T14:10:56;99454.59;;;10.34;100.00
57859;BME280;49153;45.568;11.894;2022-12-10T14:13:37;99450.72;;;10.29;100.00
57859;BME280;49153;45.568;11.894;2022-12-10T14:16:06;99441.84;;;10.20;100.00
57859;BME280;49153;45.568;11.894;2022-12-10T14:18:35;99440.44;;;10.16;100.00
57859;BME280;49153;45.568;11.894;2022-12-10T14:21:04;99435.69;;;10.10;100.00
57859;BME280;49153;45.568;11.894;2022-12-10T14:23:33;99429.03;;;10.06;100.00
57859;BME280;49153;45.568;11.894;2022-12-10T14:28:46;99445.25;;;10.01;100.00
57859;BME280;49153;45.568;11.894;2022-12-10T14:31:34;99461.38;;;10.08;100.00
57859;BME280;49153;45.568;11.894;2022-12-10T14:34:05;99447.06;;;10.01;100.00
57859;BME280;49153;45.568;11.894;2022-12-10T14:36:34;99454.28;;;9.99;100.00
57859;BME280;49153;45.568;11.894;2022-12-10T14:39:04;99449.56;;;9.93;100.00
57859;BME280;49153;45.568;11.894;2022-12-10T14:41:35;99468.69;;;9.95;100.00
57859;BME280;49153;45.568;11.894;2022-12-10T14:44:02;99459.94;;;9.85;100.00
57859;BME280;49153;45.568;11.894;2022-12-10T14:46:31;99474.75;;;9.76;100.00
57859;BME280;49153;45.568;11.894;2022-12-10T14:48:57;99477.09;;;9.69;100.00